Minerva, NY (12851)

7:47 AM EDT on September 16, 2014 (GMT -0400)
Old River Road | Change Station
CLOSE
Current Station
Personal Weather Station
Location: North Creek, NY
Elevation: 1030 ft
Nearby Weather Stations

Elev 1030 ft 43.71 °N, 73.99 °W | Updated 2 seconds ago

Overcast
Overcast
49.9 °F
Feels Like 50 °F
N
0.0
Wind Variable Wind from SW
Gusts 0.0 mph

Today
High -- | Low -- °F
--% Chance of Precip.
Yesterday
High -- | Low -- °F
Precip. -- in
6:36 AM 7:04 PM
Last Quarter, 46% visible
Pressure 30.02 in
Visibility 10.0 miles
Clouds Scattered Clouds 500 ft
Mostly Cloudy 1300 ft
Overcast 7000 ft
Windchill 50 °F
Dew Point 49 °F
Humidity 97%
Rainfall 0.18 in
Snow Depth Not available.
UV 0 out of 12
Pollen .40 out of 12
Air Quality Not available.
Flu Activity Not available.
SPECI KGFL 161117Z AUTO 19003KT 10SM SCT005 BKN013 OVC070 11/10 A3002 RMK AO2 RAE10 P0000 T01060100

More Conditions Fewer Conditions

Pressure 30.02 in
Visibility 10.0 miles
Clouds Scattered Clouds 500 ft
Mostly Cloudy 1300 ft
Overcast 7000 ft
Windchill 50 °F
Dew Point 49 °F
Humidity 97%
Rainfall 0.18 in
Snow Depth Not available.
UV 0 out of 12
Pollen .40 out of 12
Air Quality Not available.
Flu Activity Not available.
SPECI KGFL 161117Z AUTO 19003KT 10SM SCT005 BKN013 OVC070 11/10 A3002 RMK AO2 RAE10 P0000 T01060100

More Conditions Fewer Conditions

10-Day Weather Forecast

Almanac

Astronomy

Sep. 16, 2014 Rise Set
Actual Time 6:36 AM EDT 7:04 PM EDT
Civil Twilight 6:07 AM EDT 7:33 PM EDT
Nautical Twilight 5:33 AM EDT 8:07 PM EDT
Astronomical Twilight 4:58 AM EDT 8:42 PM EDT
Moon No Moon Rise 2:34 PM EDT
Length of Visible Light 13h 25m
Length of Day
12h 28m
Tomorrow will be 2m 58s shorter.
Last Quarter, 46% of the Moon is Illuminated
Today
Last Quarter
Sep 24
New
Oct 1
First Quarter
Oct 8
Full
Oct 15
Last Quarter

Today's Extremes

State Highs State Lows

Community

WunderPhotos

Upload Photos

1,753,724 photos uploaded!

Nearby

Air Quality

  Air Quality AQ Index Pollutant
Tuesday Good
OZONE
Tuesday Good
PM2.5

Snow Depth

Station Depth Elevation
No new snow has been reported.

Earthquake Activity

City Distance Mag. Time & Date
No recent earthquake activity has been reported nearby.
Minimum magnitude displayed is 2.5.

Coastal Water Temperatures

Place Temperature
No Stations Reporting

Nearby Weather Stations